sensor_id;sensor_type;location;lat;lon;timestamp;P1;durP1;ratioP1;P2;durP2;ratioP2
15295;SDS011;7749;49.964;7.890;2023-05-29T00:01:46;6.23;;;4.53;;
15295;SDS011;7749;49.964;7.890;2023-05-29T00:04:16;5.33;;;4.63;;
15295;SDS011;7749;49.964;7.890;2023-05-29T00:06:43;5.57;;;4.57;;
15295;SDS011;7749;49.964;7.890;2023-05-29T00:09:13;7.90;;;4.60;;
15295;SDS011;7749;49.964;7.890;2023-05-29T00:11:42;5.23;;;4.03;;
15295;SDS011;7749;49.964;7.890;2023-05-29T00:14:09;6.97;;;4.30;;
15295;SDS011;7749;49.964;7.890;2023-05-29T00:16:40;7.00;;;4.67;;
15295;SDS011;7749;49.964;7.890;2023-05-29T00:19:11;4.97;;;4.20;;
15295;SDS011;7749;49.964;7.890;2023-05-29T00:21:38;5.80;;;4.07;;
15295;SDS011;7749;49.964;7.890;2023-05-29T00:24:06;6.37;;;4.67;;
15295;SDS011;7749;49.964;7.890;2023-05-29T00:26:34;7.57;;;4.47;;
15295;SDS011;7749;49.964;7.890;2023-05-29T00:29:01;6.27;;;4.77;;
15295;SDS011;7749;49.964;7.890;2023-05-29T00:31:28;6.00;;;4.47;;
15295;SDS011;7749;49.964;7.890;2023-05-29T00:33:56;6.60;;;4.60;;
15295;SDS011;7749;49.964;7.890;2023-05-29T00:36:23;4.70;;;4.20;;
15295;SDS011;7749;49.964;7.890;2023-05-29T00:38:52;5.93;;;4.53;;
15295;SDS011;7749;49.964;7.890;2023-05-29T00:41:19;5.67;;;4.10;;
15295;SDS011;7749;49.964;7.890;2023-05-29T00:43:46;6.37;;;4.40;;
15295;SDS011;7749;49.964;7.890;2023-05-29T00:46:16;5.90;;;4.57;;
15295;SDS011;7749;49.964;7.890;2023-05-29T00:48:46;6.50;;;4.77;;
15295;SDS011;7749;49.964;7.890;2023-05-29T00:51:14;4.87;;;3.97;;
15295;SDS011;7749;49.964;7.890;2023-05-29T00:53:42;7.83;;;4.30;;
15295;SDS011;7749;49.964;7.890;2023-05-29T00:56:11;5.57;;;4.40;;
15295;SDS011;7749;49.964;7.890;2023-05-29T00:58:39;8.27;;;4.33;;
15295;SDS011;7749;49.964;7.890;2023-05-29T01:01:08;6.70;;;4.67;;
15295;SDS011;7749;49.964;7.890;2023-05-29T01:03:36;5.20;;;4.10;;
15295;SDS011;7749;49.964;7.890;2023-05-29T01:06:04;6.83;;;4.67;;
15295;SDS011;7749;49.964;7.890;2023-05-29T01:08:31;6.90;;;4.20;;
15295;SDS011;7749;49.964;7.890;2023-05-29T01:11:00;7.03;;;4.30;;
15295;SDS011;7749;49.964;7.890;2023-05-29T01:13:35;5.93;;;4.27;;
15295;SDS011;7749;49.964;7.890;2023-05-29T01:16:08;4.97;;;3.90;;
15295;SDS011;7749;49.964;7.890;2023-05-29T01:18:57;5.40;;;4.10;;
15295;SDS011;7749;49.964;7.890;2023-05-29T01:22:05;6.60;;;4.23;;
15295;SDS011;7749;49.964;7.890;2023-05-29T01:27:20;5.30;;;4.30;;
15295;SDS011;7749;49.964;7.890;2023-05-29T01:29:52;9.83;;;4.27;;
15295;SDS011;7749;49.964;7.890;2023-05-29T01:32:22;7.70;;;4.77;;
15295;SDS011;7749;49.964;7.890;2023-05-29T01:34:51;5.50;;;4.33;;
15295;SDS011;7749;49.964;7.890;2023-05-29T01:37:19;7.50;;;4.80;;
15295;SDS011;7749;49.964;7.890;2023-05-29T01:39:46;8.27;;;5.40;;
15295;SDS011;7749;49.964;7.890;2023-05-29T01:42:13;7.03;;;4.30;;
15295;SDS011;7749;49.964;7.890;2023-05-29T01:44:41;6.50;;;4.20;;
15295;SDS011;7749;49.964;7.890;2023-05-29T01:47:09;4.53;;;4.03;;
15295;SDS011;7749;49.964;7.890;2023-05-29T01:49:37;7.37;;;4.73;;
15295;SDS011;7749;49.964;7.890;2023-05-29T01:52:05;6.17;;;4.17;;
15295;SDS011;7749;49.964;7.890;2023-05-29T01:54:33;7.30;;;4.77;;
15295;SDS011;7749;49.964;7.890;2023-05-29T01:57:00;5.57;;;4.40;;
15295;SDS011;7749;49.964;7.890;2023-05-29T01:59:29;5.00;;;4.10;;
15295;SDS011;7749;49.964;7.890;2023-05-29T02:01:57;5.67;;;4.40;;
15295;SDS011;7749;49.964;7.890;2023-05-29T02:04:24;6.87;;;4.10;;
15295;SDS011;7749;49.964;7.890;2023-05-29T02:06:52;7.73;;;4.27;;
15295;SDS011;7749;49.964;7.890;2023-05-29T02:09:19;5.73;;;4.63;;
15295;SDS011;7749;49.964;7.890;2023-05-29T02:11:47;6.43;;;4.10;;
15295;SDS011;7749;49.964;7.890;2023-05-29T02:14:15;7.87;;;4.13;;
15295;SDS011;7749;49.964;7.890;2023-05-29T02:16:42;9.33;;;4.70;;
15295;SDS011;7749;49.964;7.890;2023-05-29T02:19:12;5.10;;;4.23;;
15295;SDS011;7749;49.964;7.890;2023-05-29T02:21:40;5.60;;;4.37;;
15295;SDS011;7749;49.964;7.890;2023-05-29T02:24:07;7.53;;;4.73;;
15295;SDS011;7749;49.964;7.890;2023-05-29T02:26:35;6.17;;;4.10;;
15295;SDS011;7749;49.964;7.890;2023-05-29T02:29:03;5.80;;;4.00;;
15295;SDS011;7749;49.964;7.890;2023-05-29T02:31:34;6.97;;;3.93;;
15295;SDS011;7749;49.964;7.890;2023-05-29T02:34:01;6.40;;;4.77;;
15295;SDS011;7749;49.964;7.890;2023-05-29T02:36:28;4.77;;;3.87;;
15295;SDS011;7749;49.964;7.890;2023-05-29T02:38:55;8.10;;;4.73;;
15295;SDS011;7749;49.964;7.890;2023-05-29T02:41:23;8.20;;;4.77;;
15295;SDS011;7749;49.964;7.890;2023-05-29T02:43:50;4.83;;;4.33;;
15295;SDS011;7749;49.964;7.890;2023-05-29T02:46:17;6.53;;;4.80;;
15295;SDS011;7749;49.964;7.890;2023-05-29T02:48:45;7.37;;;5.17;;
15295;SDS011;7749;49.964;7.890;2023-05-29T02:51:12;5.93;;;4.53;;
15295;SDS011;7749;49.964;7.890;2023-05-29T02:53:40;6.37;;;4.43;;
15295;SDS011;7749;49.964;7.890;2023-05-29T02:56:07;7.07;;;4.67;;
15295;SDS011;7749;49.964;7.890;2023-05-29T02:58:39;7.27;;;4.47;;
15295;SDS011;7749;49.964;7.890;2023-05-29T03:01:06;6.80;;;4.47;;
15295;SDS011;7749;49.964;7.890;2023-05-29T03:03:33;5.60;;;3.93;;
15295;SDS011;7749;49.964;7.890;2023-05-29T03:06:04;5.80;;;4.37;;
15295;SDS011;7749;49.964;7.890;2023-05-29T03:08:31;5.57;;;4.47;;
15295;SDS011;7749;49.964;7.890;2023-05-29T03:11:00;5.60;;;4.33;;
15295;SDS011;7749;49.964;7.890;2023-05-29T03:13:27;6.37;;;4.20;;
15295;SDS011;7749;49.964;7.890;2023-05-29T03:15:55;7.60;;;4.73;;
15295;SDS011;7749;49.964;7.890;2023-05-29T03:18:24;7.63;;;4.50;;
15295;SDS011;7749;49.964;7.890;2023-05-29T03:20:51;6.17;;;4.40;;
15295;SDS011;7749;49.964;7.890;2023-05-29T03:23:19;7.43;;;4.23;;
15295;SDS011;7749;49.964;7.890;2023-05-29T03:25:47;7.43;;;4.80;;
15295;SDS011;7749;49.964;7.890;2023-05-29T03:28:14;5.93;;;4.53;;
15295;SDS011;7749;49.964;7.890;2023-05-29T03:30:41;6.90;;;4.60;;
15295;SDS011;7749;49.964;7.890;2023-05-29T03:33:09;7.60;;;4.60;;
15295;SDS011;7749;49.964;7.890;2023-05-29T03:35:36;6.13;;;4.37;;
15295;SDS011;7749;49.964;7.890;2023-05-29T03:38:03;6.70;;;4.57;;
15295;SDS011;7749;49.964;7.890;2023-05-29T03:40:31;4.77;;;4.00;;
15295;SDS011;7749;49.964;7.890;2023-05-29T03:42:58;6.07;;;4.27;;
15295;SDS011;7749;49.964;7.890;2023-05-29T03:45:25;6.30;;;4.27;;
15295;SDS011;7749;49.964;7.890;2023-05-29T03:47:55;5.43;;;4.40;;
15295;SDS011;7749;49.964;7.890;2023-05-29T03:50:22;5.70;;;4.17;;
15295;SDS011;7749;49.964;7.890;2023-05-29T03:52:49;8.37;;;3.77;;
15295;SDS011;7749;49.964;7.890;2023-05-29T03:55:17;4.67;;;4.07;;
15295;SDS011;7749;49.964;7.890;2023-05-29T03:57:44;7.70;;;4.27;;
15295;SDS011;7749;49.964;7.890;2023-05-29T04:00:12;5.47;;;4.00;;
15295;SDS011;7749;49.964;7.890;2023-05-29T04:02:40;6.03;;;4.07;;
15295;SDS011;7749;49.964;7.890;2023-05-29T04:05:08;6.27;;;4.53;;
15295;SDS011;7749;49.964;7.890;2023-05-29T04:07:36;5.33;;;4.13;;
15295;SDS011;7749;49.964;7.890;2023-05-29T04:10:06;6.70;;;4.20;;
15295;SDS011;7749;49.964;7.890;2023-05-29T04:12:33;6.30;;;3.90;;
15295;SDS011;7749;49.964;7.890;2023-05-29T04:15:01;5.97;;;4.00;;
15295;SDS011;7749;49.964;7.890;2023-05-29T04:17:29;6.27;;;3.87;;
15295;SDS011;7749;49.964;7.890;2023-05-29T04:19:57;5.40;;;4.00;;
15295;SDS011;7749;49.964;7.890;2023-05-29T04:22:24;4.80;;;3.67;;
15295;SDS011;7749;49.964;7.890;2023-05-29T04:24:52;4.70;;;3.97;;
15295;SDS011;7749;49.964;7.890;2023-05-29T04:27:19;5.13;;;3.67;;
15295;SDS011;7749;49.964;7.890;2023-05-29T04:29:46;5.17;;;4.03;;
15295;SDS011;7749;49.964;7.890;2023-05-29T04:32:14;7.00;;;3.93;;
15295;SDS011;7749;49.964;7.890;2023-05-29T04:34:41;5.63;;;4.27;;
15295;SDS011;7749;49.964;7.890;2023-05-29T04:37:11;5.83;;;4.10;;
15295;SDS011;7749;49.964;7.890;2023-05-29T04:39:40;5.67;;;3.90;;
15295;SDS011;7749;49.964;7.890;2023-05-29T04:42:07;4.33;;;3.57;;
15295;SDS011;7749;49.964;7.890;2023-05-29T04:44:35;8.63;;;4.60;;
15295;SDS011;7749;49.964;7.890;2023-05-29T04:47:02;8.63;;;4.33;;
15295;SDS011;7749;49.964;7.890;2023-05-29T04:49:30;5.27;;;3.77;;
15295;SDS011;7749;49.964;7.890;2023-05-29T04:51:57;5.83;;;3.63;;
15295;SDS011;7749;49.964;7.890;2023-05-29T04:54:27;8.20;;;4.27;;
15295;SDS011;7749;49.964;7.890;2023-05-29T04:56:55;5.97;;;3.90;;
15295;SDS011;7749;49.964;7.890;2023-05-29T04:59:22;6.37;;;4.20;;
15295;SDS011;7749;49.964;7.890;2023-05-29T05:01:49;6.80;;;4.33;;
15295;SDS011;7749;49.964;7.890;2023-05-29T05:04:17;7.47;;;4.50;;
15295;SDS011;7749;49.964;7.890;2023-05-29T05:06:44;7.30;;;3.60;;
15295;SDS011;7749;49.964;7.890;2023-05-29T05:09:12;6.17;;;4.73;;
15295;SDS011;7749;49.964;7.890;2023-05-29T05:11:39;5.93;;;4.10;;
15295;SDS011;7749;49.964;7.890;2023-05-29T05:14:07;7.73;;;4.17;;
15295;SDS011;7749;49.964;7.890;2023-05-29T05:16:34;6.17;;;3.87;;
15295;SDS011;7749;49.964;7.890;2023-05-29T05:19:02;7.50;;;4.20;;
15295;SDS011;7749;49.964;7.890;2023-05-29T05:21:30;6.97;;;3.83;;
15295;SDS011;7749;49.964;7.890;2023-05-29T05:23:58;6.00;;;4.10;;
15295;SDS011;7749;49.964;7.890;2023-05-29T05:26:26;5.37;;;3.90;;
15295;SDS011;7749;49.964;7.890;2023-05-29T05:28:54;5.90;;;3.97;;
15295;SDS011;7749;49.964;7.890;2023-05-29T05:31:21;7.70;;;4.00;;
15295;SDS011;7749;49.964;7.890;2023-05-29T05:33:49;6.10;;;3.43;;
15295;SDS011;7749;49.964;7.890;2023-05-29T05:36:17;7.17;;;3.83;;
15295;SDS011;7749;49.964;7.890;2023-05-29T05:38:45;7.87;;;4.20;;
15295;SDS011;7749;49.964;7.890;2023-05-29T05:41:12;6.23;;;4.23;;
15295;SDS011;7749;49.964;7.890;2023-05-29T05:43:42;6.33;;;3.80;;
15295;SDS011;7749;49.964;7.890;2023-05-29T05:46:09;5.90;;;3.53;;
15295;SDS011;7749;49.964;7.890;2023-05-29T05:48:37;5.50;;;3.43;;
15295;SDS011;7749;49.964;7.890;2023-05-29T05:51:04;6.07;;;3.87;;
15295;SDS011;7749;49.964;7.890;2023-05-29T05:53:32;5.83;;;3.90;;
15295;SDS011;7749;49.964;7.890;2023-05-29T05:55:59;5.63;;;3.83;;
15295;SDS011;7749;49.964;7.890;2023-05-29T05:58:27;5.23;;;3.97;;
15295;SDS011;7749;49.964;7.890;2023-05-29T06:00:54;6.30;;;3.80;;
15295;SDS011;7749;49.964;7.890;2023-05-29T06:03:21;5.60;;;4.13;;
15295;SDS011;7749;49.964;7.890;2023-05-29T06:05:49;9.40;;;4.27;;
15295;SDS011;7749;49.964;7.890;2023-05-29T06:08:18;7.10;;;4.10;;
15295;SDS011;7749;49.964;7.890;2023-05-29T06:10:45;4.67;;;3.57;;
15295;SDS011;7749;49.964;7.890;2023-05-29T06:13:13;7.17;;;3.93;;
15295;SDS011;7749;49.964;7.890;2023-05-29T06:15:41;6.30;;;4.17;;
15295;SDS011;7749;49.964;7.890;2023-05-29T06:18:09;5.73;;;3.77;;
15295;SDS011;7749;49.964;7.890;2023-05-29T06:20:39;7.33;;;3.97;;
15295;SDS011;7749;49.964;7.890;2023-05-29T06:23:08;6.17;;;4.20;;
15295;SDS011;7749;49.964;7.890;2023-05-29T06:25:35;7.50;;;4.10;;
15295;SDS011;7749;49.964;7.890;2023-05-29T06:28:02;7.60;;;4.07;;
15295;SDS011;7749;49.964;7.890;2023-05-29T06:30:32;5.83;;;3.97;;
15295;SDS011;7749;49.964;7.890;2023-05-29T06:33:02;6.03;;;3.73;;
15295;SDS011;7749;49.964;7.890;2023-05-29T06:35:30;7.40;;;4.43;;
15295;SDS011;7749;49.964;7.890;2023-05-29T06:37:57;6.47;;;4.37;;
15295;SDS011;7749;49.964;7.890;2023-05-29T06:40:25;6.87;;;3.37;;
15295;SDS011;7749;49.964;7.890;2023-05-29T06:42:54;5.53;;;3.90;;
15295;SDS011;7749;49.964;7.890;2023-05-29T06:45:27;5.00;;;3.50;;
15295;SDS011;7749;49.964;7.890;2023-05-29T06:47:58;5.00;;;3.80;;
15295;SDS011;7749;49.964;7.890;2023-05-29T06:50:26;6.23;;;4.03;;
15295;SDS011;7749;49.964;7.890;2023-05-29T06:52:56;6.00;;;3.80;;
15295;SDS011;7749;49.964;7.890;2023-05-29T06:55:24;4.80;;;4.00;;
15295;SDS011;7749;49.964;7.890;2023-05-29T06:57:51;5.37;;;4.03;;
15295;SDS011;7749;49.964;7.890;2023-05-29T07:00:21;7.23;;;3.90;;
15295;SDS011;7749;49.964;7.890;2023-05-29T07:02:51;6.20;;;3.97;;
15295;SDS011;7749;49.964;7.890;2023-05-29T07:05:19;7.43;;;3.90;;
15295;SDS011;7749;49.964;7.890;2023-05-29T07:07:49;6.07;;;4.10;;
15295;SDS011;7749;49.964;7.890;2023-05-29T07:10:16;6.45;;;3.95;;
15295;SDS011;7749;49.964;7.890;2023-05-29T07:12:43;7.20;;;4.30;;
15295;SDS011;7749;49.964;7.890;2023-05-29T07:15:11;5.57;;;3.77;;
15295;SDS011;7749;49.964;7.890;2023-05-29T07:17:38;6.23;;;3.93;;
15295;SDS011;7749;49.964;7.890;2023-05-29T07:20:05;5.77;;;3.90;;
15295;SDS011;7749;49.964;7.890;2023-05-29T07:22:34;6.67;;;4.13;;
15295;SDS011;7749;49.964;7.890;2023-05-29T07:25:05;5.17;;;3.57;;
15295;SDS011;7749;49.964;7.890;2023-05-29T07:27:32;8.10;;;4.43;;
15295;SDS011;7749;49.964;7.890;2023-05-29T07:30:00;6.23;;;3.90;;
15295;SDS011;7749;49.964;7.890;2023-05-29T07:32:27;9.25;;;3.95;;
15295;SDS011;7749;49.964;7.890;2023-05-29T07:34:55;6.57;;;4.27;;
15295;SDS011;7749;49.964;7.890;2023-05-29T07:37:22;6.85;;;4.28;;
15295;SDS011;7749;49.964;7.890;2023-05-29T07:39:49;6.60;;;3.92;;
15295;SDS011;7749;49.964;7.890;2023-05-29T07:42:17;5.32;;;3.85;;
15295;SDS011;7749;49.964;7.890;2023-05-29T07:44:44;4.60;;;3.72;;
15295;SDS011;7749;49.964;7.890;2023-05-29T07:47:15;5.75;;;3.63;;
15295;SDS011;7749;49.964;7.890;2023-05-29T07:49:43;5.95;;;3.33;;
15295;SDS011;7749;49.964;7.890;2023-05-29T07:52:13;5.93;;;3.65;;
15295;SDS011;7749;49.964;7.890;2023-05-29T07:54:40;4.78;;;3.60;;
15295;SDS011;7749;49.964;7.890;2023-05-29T07:57:08;4.75;;;3.90;;
15295;SDS011;7749;49.964;7.890;2023-05-29T07:59:37;5.32;;;3.63;;
15295;SDS011;7749;49.964;7.890;2023-05-29T08:02:07;6.28;;;3.60;;
15295;SDS011;7749;49.964;7.890;2023-05-29T08:04:35;6.63;;;3.72;;
15295;SDS011;7749;49.964;7.890;2023-05-29T08:07:02;7.93;;;3.60;;
15295;SDS011;7749;49.964;7.890;2023-05-29T08:09:35;5.40;;;4.15;;
15295;SDS011;7749;49.964;7.890;2023-05-29T08:12:03;3.47;;;3.13;;
15295;SDS011;7749;49.964;7.890;2023-05-29T08:14:30;5.97;;;3.78;;
15295;SDS011;7749;49.964;7.890;2023-05-29T08:16:58;6.00;;;3.67;;
15295;SDS011;7749;49.964;7.890;2023-05-29T08:19:25;5.93;;;3.47;;
15295;SDS011;7749;49.964;7.890;2023-05-29T08:21:53;6.70;;;3.63;;
15295;SDS011;7749;49.964;7.890;2023-05-29T08:24:20;6.57;;;3.70;;
15295;SDS011;7749;49.964;7.890;2023-05-29T08:26:47;6.47;;;3.83;;
15295;SDS011;7749;49.964;7.890;2023-05-29T08:29:15;6.53;;;3.70;;
15295;SDS011;7749;49.964;7.890;2023-05-29T08:31:42;5.82;;;3.85;;
15295;SDS011;7749;49.964;7.890;2023-05-29T08:34:10;6.38;;;3.83;;
15295;SDS011;7749;49.964;7.890;2023-05-29T08:36:37;6.20;;;3.70;;
15295;SDS011;7749;49.964;7.890;2023-05-29T08:39:08;6.93;;;3.65;;
15295;SDS011;7749;49.964;7.890;2023-05-29T08:41:42;4.80;;;3.17;;
15295;SDS011;7749;49.964;7.890;2023-05-29T08:44:29;7.25;;;3.67;;
15295;SDS011;7749;49.964;7.890;2023-05-29T08:47:03;6.82;;;3.35;;
15295;SDS011;7749;49.964;7.890;2023-05-29T08:49:42;5.97;;;3.75;;
15295;SDS011;7749;49.964;7.890;2023-05-29T08:52:16;4.72;;;3.50;;
15295;SDS011;7749;49.964;7.890;2023-05-29T08:54:46;6.18;;;3.47;;
15295;SDS011;7749;49.964;7.890;2023-05-29T08:57:14;6.60;;;3.28;;
15295;SDS011;7749;49.964;7.890;2023-05-29T08:59:42;5.78;;;3.53;;
15295;SDS011;7749;49.964;7.890;2023-05-29T09:02:11;5.03;;;4.00;;
15295;SDS011;7749;49.964;7.890;2023-05-29T09:04:40;6.13;;;3.72;;
15295;SDS011;7749;49.964;7.890;2023-05-29T09:07:11;7.22;;;3.30;;
15295;SDS011;7749;49.964;7.890;2023-05-29T09:09:39;4.43;;;3.55;;
15295;SDS011;7749;49.964;7.890;2023-05-29T09:12:07;6.13;;;3.22;;
15295;SDS011;7749;49.964;7.890;2023-05-29T09:14:36;5.30;;;3.03;;
15295;SDS011;7749;49.964;7.890;2023-05-29T09:17:06;4.93;;;3.28;;
15295;SDS011;7749;49.964;7.890;2023-05-29T09:19:35;5.88;;;3.30;;
15295;SDS011;7749;49.964;7.890;2023-05-29T09:22:09;4.35;;;2.97;;
15295;SDS011;7749;49.964;7.890;2023-05-29T09:24:48;7.65;;;3.53;;
15295;SDS011;7749;49.964;7.890;2023-05-29T09:27:16;4.32;;;3.03;;
15295;SDS011;7749;49.964;7.890;2023-05-29T09:29:44;5.47;;;2.97;;
15295;SDS011;7749;49.964;7.890;2023-05-29T09:32:16;5.18;;;2.90;;
15295;SDS011;7749;49.964;7.890;2023-05-29T09:34:44;7.07;;;3.70;;
15295;SDS011;7749;49.964;7.890;2023-05-29T09:37:12;5.72;;;3.25;;
15295;SDS011;7749;49.964;7.890;2023-05-29T09:39:44;6.57;;;3.60;;
15295;SDS011;7749;49.964;7.890;2023-05-29T09:42:14;6.03;;;3.15;;
15295;SDS011;7749;49.964;7.890;2023-05-29T09:44:43;3.92;;;3.22;;
15295;SDS011;7749;49.964;7.890;2023-05-29T09:47:16;4.18;;;2.90;;
15295;SDS011;7749;49.964;7.890;2023-05-29T09:49:48;4.90;;;3.30;;
15295;SDS011;7749;49.964;7.890;2023-05-29T09:52:15;5.32;;;3.13;;
15295;SDS011;7749;49.964;7.890;2023-05-29T09:54:49;5.93;;;2.97;;
15295;SDS011;7749;49.964;7.890;2023-05-29T09:57:17;6.82;;;3.45;;
15295;SDS011;7749;49.964;7.890;2023-05-29T09:59:45;3.80;;;2.90;;
15295;SDS011;7749;49.964;7.890;2023-05-29T10:02:18;4.63;;;3.25;;
15295;SDS011;7749;49.964;7.890;2023-05-29T10:04:46;5.57;;;3.13;;
15295;SDS011;7749;49.964;7.890;2023-05-29T10:07:22;5.10;;;3.00;;
15295;SDS011;7749;49.964;7.890;2023-05-29T10:09:59;4.82;;;3.08;;
15295;SDS011;7749;49.964;7.890;2023-05-29T10:12:29;5.18;;;3.05;;
15295;SDS011;7749;49.964;7.890;2023-05-29T10:15:12;4.18;;;3.00;;
15295;SDS011;7749;49.964;7.890;2023-05-29T10:18:24;3.92;;;2.60;;
15295;SDS011;7749;49.964;7.890;2023-05-29T10:20:40;4.55;;;3.03;;
15295;SDS011;7749;49.964;7.890;2023-05-29T10:23:10;4.13;;;2.90;;
15295;SDS011;7749;49.964;7.890;2023-05-29T10:25:39;6.97;;;3.50;;
15295;SDS011;7749;49.964;7.890;2023-05-29T10:28:11;10.48;;;3.30;;
15295;SDS011;7749;49.964;7.890;2023-05-29T10:30:43;3.38;;;2.65;;
15295;SDS011;7749;49.964;7.890;2023-05-29T10:36:22;4.57;;;2.88;;
15295;SDS011;7749;49.964;7.890;2023-05-29T10:38:53;4.53;;;2.80;;
15295;SDS011;7749;49.964;7.890;2023-05-29T10:43:55;4.60;;;2.72;;
15295;SDS011;7749;49.964;7.890;2023-05-29T10:49:19;5.10;;;3.20;;
15295;SDS011;7749;49.964;7.890;2023-05-29T10:51:50;5.88;;;3.28;;
15295;SDS011;7749;49.964;7.890;2023-05-29T10:54:21;5.45;;;3.28;;
15295;SDS011;7749;49.964;7.890;2023-05-29T10:56:57;3.83;;;3.05;;
15295;SDS011;7749;49.964;7.890;2023-05-29T10:59:28;4.70;;;3.00;;
15295;SDS011;7749;49.964;7.890;2023-05-29T11:02:03;3.42;;;2.60;;
15295;SDS011;7749;49.964;7.890;2023-05-29T11:04:33;4.43;;;3.08;;
15295;SDS011;7749;49.964;7.890;2023-05-29T11:07:00;5.43;;;2.80;;
15295;SDS011;7749;49.964;7.890;2023-05-29T11:09:33;4.75;;;2.92;;
15295;SDS011;7749;49.964;7.890;2023-05-29T11:20:28;5.53;;;3.40;;
15295;SDS011;7749;49.964;7.890;2023-05-29T11:25:26;5.47;;;2.97;;
15295;SDS011;7749;49.964;7.890;2023-05-29T11:27:54;5.57;;;2.70;;
15295;SDS011;7749;49.964;7.890;2023-05-29T11:30:22;4.68;;;2.70;;
15295;SDS011;7749;49.964;7.890;2023-05-29T11:32:49;4.57;;;3.08;;
15295;SDS011;7749;49.964;7.890;2023-05-29T11:35:21;4.72;;;3.47;;
15295;SDS011;7749;49.964;7.890;2023-05-29T11:37:49;3.88;;;3.47;;
15295;SDS011;7749;49.964;7.890;2023-05-29T11:40:17;4.90;;;3.30;;
15295;SDS011;7749;49.964;7.890;2023-05-29T11:42:47;3.92;;;3.53;;
15295;SDS011;7749;49.964;7.890;2023-05-29T11:45:19;4.38;;;3.97;;
15295;SDS011;7749;49.964;7.890;2023-05-29T11:50:19;4.65;;;3.83;;
15295;SDS011;7749;49.964;7.890;2023-05-29T11:52:55;4.65;;;3.53;;
15295;SDS011;7749;49.964;7.890;2023-05-29T11:55:24;4.60;;;4.15;;
15295;SDS011;7749;49.964;7.890;2023-05-29T11:57:56;5.05;;;4.00;;
15295;SDS011;7749;49.964;7.890;2023-05-29T12:00:32;3.90;;;3.60;;
15295;SDS011;7749;49.964;7.890;2023-05-29T12:03:02;4.70;;;3.90;;
15295;SDS011;7749;49.964;7.890;2023-05-29T12:05:31;5.50;;;3.67;;
15295;SDS011;7749;49.964;7.890;2023-05-29T12:08:13;5.38;;;3.83;;
15295;SDS011;7749;49.964;7.890;2023-05-29T12:10:47;5.22;;;3.55;;
15295;SDS011;7749;49.964;7.890;2023-05-29T12:13:15;4.43;;;3.90;;
15295;SDS011;7749;49.964;7.890;2023-05-29T12:15:45;3.90;;;3.60;;
15295;SDS011;7749;49.964;7.890;2023-05-29T12:18:15;5.43;;;3.67;;
15295;SDS011;7749;49.964;7.890;2023-05-29T12:20:43;6.15;;;3.60;;
15295;SDS011;7749;49.964;7.890;2023-05-29T12:23:10;4.10;;;3.67;;
15295;SDS011;7749;49.964;7.890;2023-05-29T12:25:38;4.68;;;3.78;;
15295;SDS011;7749;49.964;7.890;2023-05-29T12:28:11;4.18;;;3.78;;
15295;SDS011;7749;49.964;7.890;2023-05-29T12:30:46;4.50;;;3.70;;
15295;SDS011;7749;49.964;7.890;2023-05-29T12:33:33;4.50;;;4.05;;
15295;SDS011;7749;49.964;7.890;2023-05-29T12:36:04;4.18;;;3.50;;
15295;SDS011;7749;49.964;7.890;2023-05-29T12:38:51;5.57;;;3.65;;
15295;SDS011;7749;49.964;7.890;2023-05-29T12:41:22;4.85;;;3.85;;
15295;SDS011;7749;49.964;7.890;2023-05-29T12:43:52;3.88;;;3.38;;
15295;SDS011;7749;49.964;7.890;2023-05-29T12:46:25;3.85;;;3.50;;
15295;SDS011;7749;49.964;7.890;2023-05-29T12:48:53;4.10;;;3.80;;
15295;SDS011;7749;49.964;7.890;2023-05-29T12:51:22;5.25;;;3.53;;
15295;SDS011;7749;49.964;7.890;2023-05-29T12:53:53;4.55;;;4.03;;
15295;SDS011;7749;49.964;7.890;2023-05-29T12:56:22;5.00;;;4.00;;
15295;SDS011;7749;49.964;7.890;2023-05-29T12:58:53;3.65;;;3.35;;
15295;SDS011;7749;49.964;7.890;2023-05-29T13:01:20;5.20;;;3.70;;
15295;SDS011;7749;49.964;7.890;2023-05-29T13:03:49;6.55;;;3.80;;
15295;SDS011;7749;49.964;7.890;2023-05-29T13:06:17;6.20;;;4.90;;
15295;SDS011;7749;49.964;7.890;2023-05-29T13:08:45;4.00;;;3.70;;
15295;SDS011;7749;49.964;7.890;2023-05-29T13:11:12;4.05;;;3.60;;
15295;SDS011;7749;49.964;7.890;2023-05-29T13:13:39;4.78;;;3.53;;
15295;SDS011;7749;49.964;7.890;2023-05-29T13:16:06;3.95;;;3.65;;
15295;SDS011;7749;49.964;7.890;2023-05-29T13:18:37;6.82;;;4.10;;
15295;SDS011;7749;49.964;7.890;2023-05-29T13:21:05;4.57;;;4.18;;
15295;SDS011;7749;49.964;7.890;2023-05-29T13:23:32;4.45;;;3.80;;
15295;SDS011;7749;49.964;7.890;2023-05-29T13:26:06;4.72;;;3.67;;
15295;SDS011;7749;49.964;7.890;2023-05-29T13:28:33;4.10;;;3.63;;
15295;SDS011;7749;49.964;7.890;2023-05-29T13:31:01;6.55;;;4.32;;
15295;SDS011;7749;49.964;7.890;2023-05-29T13:33:28;4.63;;;3.47;;
15295;SDS011;7749;49.964;7.890;2023-05-29T13:35:55;4.07;;;3.78;;
15295;SDS011;7749;49.964;7.890;2023-05-29T13:38:24;3.83;;;3.50;;
15295;SDS011;7749;49.964;7.890;2023-05-29T13:40:51;6.15;;;4.22;;
15295;SDS011;7749;49.964;7.890;2023-05-29T13:43:19;3.63;;;3.30;;
15295;SDS011;7749;49.964;7.890;2023-05-29T13:45:55;4.40;;;3.67;;
15295;SDS011;7749;49.964;7.890;2023-05-29T13:48:23;4.43;;;3.60;;
15295;SDS011;7749;49.964;7.890;2023-05-29T13:50:50;4.68;;;3.95;;
15295;SDS011;7749;49.964;7.890;2023-05-29T13:53:17;3.67;;;3.38;;
15295;SDS011;7749;49.964;7.890;2023-05-29T13:55:45;4.85;;;3.70;;
15295;SDS011;7749;49.964;7.890;2023-05-29T13:58:13;4.07;;;3.72;;
15295;SDS011;7749;49.964;7.890;2023-05-29T14:00:40;4.00;;;3.58;;
15295;SDS011;7749;49.964;7.890;2023-05-29T14:03:08;4.03;;;3.58;;
15295;SDS011;7749;49.964;7.890;2023-05-29T14:05:36;4.35;;;3.88;;
15295;SDS011;7749;49.964;7.890;2023-05-29T14:08:18;3.88;;;3.50;;
15295;SDS011;7749;49.964;7.890;2023-05-29T14:10:48;4.00;;;3.60;;
15295;SDS011;7749;49.964;7.890;2023-05-29T14:13:20;4.65;;;3.67;;
15295;SDS011;7749;49.964;7.890;2023-05-29T14:15:47;4.50;;;3.90;;
15295;SDS011;7749;49.964;7.890;2023-05-29T14:18:18;4.03;;;3.72;;
15295;SDS011;7749;49.964;7.890;2023-05-29T14:20:45;3.78;;;3.47;;
15295;SDS011;7749;49.964;7.890;2023-05-29T14:23:18;3.97;;;3.63;;
15295;SDS011;7749;49.964;7.890;2023-05-29T14:25:46;5.25;;;3.50;;
15295;SDS011;7749;49.964;7.890;2023-05-29T14:28:14;5.00;;;4.60;;
15295;SDS011;7749;49.964;7.890;2023-05-29T14:30:42;4.25;;;3.75;;
15295;SDS011;7749;49.964;7.890;2023-05-29T14:33:10;3.63;;;3.13;;
15295;SDS011;7749;49.964;7.890;2023-05-29T14:35:37;4.22;;;3.53;;
15295;SDS011;7749;49.964;7.890;2023-05-29T14:38:04;4.35;;;3.95;;
15295;SDS011;7749;49.964;7.890;2023-05-29T14:40:32;4.85;;;4.10;;
15295;SDS011;7749;49.964;7.890;2023-05-29T14:43:01;5.03;;;3.97;;
15295;SDS011;7749;49.964;7.890;2023-05-29T14:45:28;3.92;;;3.63;;
15295;SDS011;7749;49.964;7.890;2023-05-29T14:47:55;4.80;;;3.95;;
15295;SDS011;7749;49.964;7.890;2023-05-29T14:50:23;4.10;;;3.70;;
15295;SDS011;7749;49.964;7.890;2023-05-29T14:52:54;4.45;;;4.05;;
15295;SDS011;7749;49.964;7.890;2023-05-29T14:55:22;4.30;;;3.50;;
15295;SDS011;7749;49.964;7.890;2023-05-29T14:57:49;4.60;;;4.15;;
15295;SDS011;7749;49.964;7.890;2023-05-29T15:00:17;6.43;;;4.63;;
15295;SDS011;7749;49.964;7.890;2023-05-29T15:02:46;6.60;;;3.95;;
15295;SDS011;7749;49.964;7.890;2023-05-29T15:05:14;4.18;;;3.78;;
15295;SDS011;7749;49.964;7.890;2023-05-29T15:07:41;4.13;;;3.83;;
15295;SDS011;7749;49.964;7.890;2023-05-29T15:10:09;4.18;;;3.47;;
15295;SDS011;7749;49.964;7.890;2023-05-29T15:12:36;4.65;;;4.13;;
15295;SDS011;7749;49.964;7.890;2023-05-29T15:15:04;4.38;;;4.07;;
15295;SDS011;7749;49.964;7.890;2023-05-29T15:17:32;4.85;;;4.07;;
15295;SDS011;7749;49.964;7.890;2023-05-29T15:20:00;4.60;;;4.20;;
15295;SDS011;7749;49.964;7.890;2023-05-29T15:22:30;5.50;;;3.80;;
15295;SDS011;7749;49.964;7.890;2023-05-29T15:24:59;5.97;;;4.22;;
15295;SDS011;7749;49.964;7.890;2023-05-29T15:27:29;4.35;;;4.05;;
15295;SDS011;7749;49.964;7.890;2023-05-29T15:30:09;4.72;;;3.75;;
15295;SDS011;7749;49.964;7.890;2023-05-29T15:32:38;4.50;;;4.20;;
15295;SDS011;7749;49.964;7.890;2023-05-29T15:35:09;4.10;;;3.80;;
15295;SDS011;7749;49.964;7.890;2023-05-29T15:37:38;4.40;;;4.00;;